Main page
METAR-TAF:

METAR-TAF

Airports :

South Wood County Airport

Wisconsin Rapids, Wisconsin, United States

latitude: 44-21-33N, longitude: 089-50-13W, elevation: 1020 ft

Current weather observation

The report was made 39 minutes ago, at 20:54 UTC
Wind 8 mph from the West
Temperature 16°F
Humidity 37%
Pressure 30.63 in. Hg
Visibility: 10 miles
Clear sky

METAR: KISW 202054Z AUTO 27007KT 10SM CLR M09/M21 A3063 RMK AO2 UPB32E33 SLP401 P0000 60000 T10941206 56023

Time: 15:33 (21:33 UTC)


TAF: missing

Weather observations and forecasts of more than 4000 airports (METAR and TAF reports).

The available stations are represented by yellow and red dots on the map.

Hover mouse over dot to see the name of the station.

Then click to see weather observations and forecasts.

To change the map : click on the green buttons with a black cross to zoom in, on the green button with a dash to zoom out, or on the green arrows for adjacent maps.


METAR-TAF: